createdAt,value
2018-07-12T00:01:58.702Z,99.90
2018-07-12T00:05:01.585Z,99.90
2018-07-12T00:08:04.493Z,99.90
2018-07-12T00:11:07.438Z,99.90
2018-07-12T00:14:10.270Z,99.90
2018-07-12T00:17:13.082Z,99.90
2018-07-12T00:20:16.089Z,99.90
2018-07-12T00:23:19.193Z,99.90
2018-07-12T00:26:22.087Z,99.90
2018-07-12T00:29:25.085Z,99.90
2018-07-12T00:32:28.121Z,99.90
2018-07-12T00:35:31.083Z,99.90
2018-07-12T00:38:33.989Z,99.90
2018-07-12T00:41:36.969Z,99.90
2018-07-12T00:44:39.945Z,99.90
2018-07-12T00:47:42.800Z,99.90
2018-07-12T00:50:45.715Z,99.90
2018-07-12T00:53:48.581Z,99.90
2018-07-12T00:56:51.589Z,99.90
2018-07-12T00:59:54.476Z,99.90
2018-07-12T01:02:57.502Z,99.90
2018-07-12T01:06:00.456Z,99.90
2018-07-12T01:09:03.547Z,99.90
2018-07-12T01:12:06.631Z,99.90
2018-07-12T01:15:09.519Z,99.90
2018-07-12T01:18:12.482Z,99.90
2018-07-12T01:21:15.557Z,99.90
2018-07-12T01:24:18.543Z,99.90
2018-07-12T01:27:21.485Z,99.90
2018-07-12T01:30:24.366Z,99.90
2018-07-12T01:33:27.462Z,99.90
2018-07-12T01:36:31.479Z,99.90
2018-07-12T01:39:34.434Z,99.90
2018-07-12T01:42:37.333Z,99.90
2018-07-12T01:45:40.304Z,99.90
2018-07-12T01:48:43.181Z,99.90
2018-07-12T01:51:46.177Z,99.90
2018-07-12T01:54:49.149Z,99.90
2018-07-12T01:57:52.050Z,99.90
2018-07-12T02:00:55.006Z,99.90
2018-07-12T02:03:57.921Z,99.90
2018-07-12T02:07:00.798Z,99.90
2018-07-12T02:10:03.835Z,99.90
2018-07-12T02:13:06.840Z,99.90
2018-07-12T02:16:09.929Z,99.90
2018-07-12T02:19:12.978Z,99.90
2018-07-12T02:22:15.911Z,99.90
2018-07-12T02:25:18.852Z,99.90
2018-07-12T02:28:21.749Z,99.90
2018-07-12T02:31:24.667Z,99.90
2018-07-12T02:34:27.561Z,99.90
2018-07-12T02:37:30.579Z,99.90
2018-07-12T02:40:33.493Z,99.90
2018-07-12T02:43:36.430Z,99.90
2018-07-12T02:46:39.396Z,99.90
2018-07-12T02:49:42.301Z,99.90
2018-07-12T02:52:45.179Z,99.90
2018-07-12T02:55:48.183Z,99.90
2018-07-12T02:58:51.271Z,99.90
2018-07-12T03:04:57.379Z,99.90
2018-07-12T03:08:00.238Z,99.90
2018-07-12T03:11:03.215Z,99.90
2018-07-12T03:14:06.594Z,99.90
2018-07-12T03:17:09.504Z,99.90
2018-07-12T03:20:12.380Z,99.90
2018-07-12T03:23:15.285Z,99.90
2018-07-12T03:26:18.156Z,99.90
2018-07-12T03:29:21.057Z,99.90
2018-07-12T03:32:23.880Z,99.90
2018-07-12T03:35:26.902Z,99.90
2018-07-12T03:38:29.798Z,99.90
2018-07-12T03:41:32.814Z,99.90
2018-07-12T03:44:35.632Z,99.90
2018-07-12T03:47:38.595Z,99.90
2018-07-12T03:50:41.525Z,99.90
2018-07-12T03:53:44.423Z,99.90
2018-07-12T03:56:47.399Z,99.90
2018-07-12T03:59:50.449Z,99.90
2018-07-12T04:02:54.005Z,99.90
2018-07-12T04:05:58.582Z,99.90
2018-07-12T04:09:01.673Z,99.90
2018-07-12T04:12:04.713Z,99.90
2018-07-12T04:15:07.824Z,99.90
2018-07-12T04:18:11.029Z,99.90
2018-07-12T04:21:14.142Z,99.90
2018-07-12T04:24:17.234Z,99.90
2018-07-12T04:27:21.333Z,99.90
2018-07-12T04:30:24.270Z,99.90
2018-07-12T04:33:27.461Z,99.90
2018-07-12T04:36:30.582Z,99.90
2018-07-12T04:39:34.008Z,99.90
2018-07-12T04:42:37.020Z,99.90
2018-07-12T04:45:40.003Z,99.90
2018-07-12T04:48:43.250Z,99.90
2018-07-12T04:51:46.443Z,99.90
2018-07-12T04:54:49.491Z,99.90
2018-07-12T04:57:52.467Z,99.90
2018-07-12T05:00:56.386Z,99.90
2018-07-12T05:03:59.434Z,99.90
2018-07-12T05:07:02.534Z,99.90
2018-07-12T05:10:05.505Z,99.90
2018-07-12T05:13:08.446Z,99.90
2018-07-12T05:16:11.438Z,99.90
2018-07-12T05:19:14.497Z,99.90
2018-07-12T05:22:21.652Z,99.90
2018-07-12T05:25:24.704Z,99.90
2018-07-12T05:28:27.696Z,99.90
2018-07-12T05:31:30.831Z,99.90
2018-07-12T05:34:33.664Z,99.90
2018-07-12T05:37:38.182Z,99.90
2018-07-12T05:40:42.752Z,99.90
2018-07-12T05:43:47.274Z,99.90
2018-07-12T05:46:52.187Z,99.90
2018-07-12T05:49:57.330Z,99.90
2018-07-12T05:53:02.261Z,99.90
2018-07-12T05:56:07.400Z,99.90
2018-07-12T05:59:12.068Z,99.90
2018-07-12T06:02:24.044Z,99.90
2018-07-12T06:05:28.746Z,99.90
2018-07-12T06:08:33.557Z,99.90
2018-07-12T06:11:38.211Z,99.90
2018-07-12T06:14:43.259Z,99.90
2018-07-12T06:17:50.624Z,99.90
2018-07-12T06:20:55.283Z,99.90
2018-07-12T06:27:04.528Z,99.90
2018-07-12T06:30:09.474Z,99.90
2018-07-12T06:33:13.986Z,99.90
2018-07-12T06:36:19.048Z,99.90
2018-07-12T06:39:23.798Z,99.20
2018-07-12T06:42:28.515Z,98.80
2018-07-12T06:45:33.095Z,98.30
2018-07-12T06:48:37.726Z,97.80
2018-07-12T06:54:46.881Z,96.80
2018-07-12T06:57:51.346Z,96.50
2018-07-12T07:00:55.769Z,95.30
2018-07-12T07:04:00.336Z,95.20
2018-07-12T07:07:04.941Z,94.90
2018-07-12T07:10:09.530Z,94.70
2018-07-12T07:13:14.159Z,95.50
2018-07-12T07:16:19.015Z,95.50
2018-07-12T07:19:23.609Z,95.10
2018-07-12T07:22:28.309Z,94.60
2018-07-12T07:25:32.648Z,94.30
2018-07-12T07:28:37.534Z,94.50
2018-07-12T07:31:42.013Z,94.70
2018-07-12T07:34:46.813Z,94.90
2018-07-12T07:37:51.271Z,94.60
2018-07-12T07:40:55.859Z,94.00
2018-07-12T07:44:00.510Z,93.90
2018-07-12T07:47:05.053Z,93.80
2018-07-12T07:50:09.527Z,93.80
2018-07-12T07:53:14.117Z,93.80
2018-07-12T07:56:18.641Z,93.60
2018-07-12T07:59:23.138Z,93.10
2018-07-12T08:02:27.870Z,92.10
2018-07-12T08:05:32.284Z,91.90
2018-07-12T08:08:37.425Z,91.50
2018-07-12T08:11:41.771Z,91.60
2018-07-12T08:14:46.263Z,90.80
2018-07-12T08:17:50.706Z,91.00
2018-07-12T08:20:55.464Z,90.40
2018-07-12T08:23:59.930Z,89.40
2018-07-12T08:27:05.341Z,89.10
2018-07-12T08:30:10.421Z,89.30
2018-07-12T08:33:14.934Z,88.40
2018-07-12T08:36:19.653Z,86.60
2018-07-12T08:39:24.523Z,83.10
2018-07-12T08:42:29.020Z,79.70
2018-07-12T08:45:33.503Z,78.30
2018-07-12T08:48:38.281Z,75.50
2018-07-12T08:51:42.868Z,77.50
2018-07-12T08:54:47.403Z,76.50
2018-07-12T08:57:51.666Z,75.50
2018-07-12T09:00:56.195Z,75.50
2018-07-12T09:04:00.636Z,74.60
2018-07-12T09:07:05.149Z,76.10
2018-07-12T09:10:09.614Z,75.50
2018-07-12T09:13:14.156Z,76.70
2018-07-12T09:16:18.871Z,75.50
2018-07-12T09:19:23.385Z,75.40
2018-07-12T09:25:32.242Z,74.70
2018-07-12T09:28:36.544Z,75.20
2018-07-12T09:31:41.061Z,75.00
2018-07-12T09:34:45.535Z,75.10
2018-07-12T09:37:49.982Z,74.10
2018-07-12T09:40:54.609Z,74.10
2018-07-12T09:43:59.097Z,74.80
2018-07-12T09:47:03.594Z,74.80
2018-07-12T09:53:12.472Z,74.80
2018-07-12T09:56:16.944Z,73.00
2018-07-12T09:59:21.357Z,72.00
2018-07-12T10:02:31.161Z,70.10
2018-07-12T10:05:41.053Z,69.80
2018-07-12T10:08:50.550Z,68.80
2018-07-12T10:12:00.416Z,68.20
2018-07-12T10:15:10.391Z,67.50
2018-07-12T10:18:20.091Z,68.00
2018-07-12T10:21:24.573Z,65.70
2018-07-12T10:24:29.444Z,66.70
2018-07-12T10:27:33.772Z,67.40
2018-07-12T10:30:38.591Z,67.50
2018-07-12T10:33:43.348Z,67.10
2018-07-12T10:36:47.745Z,65.60
2018-07-12T10:39:52.185Z,65.50
2018-07-12T10:42:56.598Z,66.20
2018-07-12T10:46:00.909Z,66.60
2018-07-12T10:49:05.327Z,66.40
2018-07-12T10:52:09.829Z,64.10
2018-07-12T10:55:14.257Z,64.30
2018-07-12T10:58:18.711Z,62.50
2018-07-12T11:01:22.987Z,62.50
2018-07-12T11:04:27.732Z,60.70
2018-07-12T11:07:32.067Z,61.10
2018-07-12T11:10:36.587Z,59.50
2018-07-12T11:13:48.845Z,58.00
2018-07-12T11:16:53.452Z,58.30
2018-07-12T11:19:57.854Z,57.70
2018-07-12T11:23:02.529Z,56.60
2018-07-12T11:26:07.102Z,57.20
2018-07-12T11:29:11.661Z,56.30
2018-07-12T11:32:16.779Z,55.50
2018-07-12T11:35:21.926Z,54.20
2018-07-12T11:38:26.410Z,55.30
2018-07-12T11:41:30.876Z,54.30
2018-07-12T11:44:35.225Z,53.40
2018-07-12T11:47:39.765Z,52.70
2018-07-12T11:50:44.026Z,52.00
2018-07-12T11:53:48.651Z,52.40
2018-07-12T11:56:53.504Z,51.50
2018-07-12T11:59:58.174Z,52.50
2018-07-12T12:03:02.592Z,51.70
2018-07-12T12:06:07.165Z,51.70
2018-07-12T12:09:11.490Z,50.70
2018-07-12T12:12:16.405Z,50.30
2018-07-12T12:15:20.977Z,51.40
2018-07-12T12:18:25.566Z,52.10
2018-07-12T12:21:30.021Z,52.50
2018-07-12T12:24:34.961Z,59.80
2018-07-12T12:27:39.896Z,64.90
2018-07-12T12:30:44.882Z,70.30
2018-07-12T12:33:50.237Z,71.30
2018-07-12T12:36:55.073Z,72.90
2018-07-12T12:39:59.696Z,74.80
2018-07-12T12:43:04.233Z,77.70
2018-07-12T12:46:09.182Z,80.20
2018-07-12T12:49:13.980Z,81.40
2018-07-12T12:52:18.633Z,82.30
2018-07-12T12:55:30.022Z,83.20
2018-07-12T12:58:36.175Z,82.80
2018-07-12T13:01:40.551Z,83.30
2018-07-12T13:04:45.257Z,83.70
2018-07-12T13:07:49.905Z,83.30
2018-07-12T13:10:54.329Z,84.70
2018-07-12T13:13:59.040Z,85.20
2018-07-12T13:17:03.757Z,86.30
2018-07-12T13:20:09.132Z,84.80
2018-07-12T13:23:14.148Z,85.70
2018-07-12T13:26:22.991Z,83.90
2018-07-12T13:29:27.917Z,78.90
2018-07-12T13:32:32.539Z,77.90
2018-07-12T13:35:37.198Z,74.70
2018-07-12T13:38:41.528Z,74.00
2018-07-12T13:41:46.012Z,74.10
2018-07-12T13:44:50.406Z,72.50
2018-07-12T13:47:55.073Z,70.30
2018-07-12T13:50:59.644Z,71.00
2018-07-12T13:54:04.108Z,69.80
2018-07-12T13:57:08.798Z,70.30
2018-07-12T14:00:13.482Z,69.60
2018-07-12T14:03:18.054Z,68.70
2018-07-12T14:06:22.744Z,69.40
2018-07-12T14:09:27.563Z,69.30
2018-07-12T14:12:32.215Z,69.60
2018-07-12T14:15:37.031Z,70.00
2018-07-12T14:18:41.398Z,70.50
2018-07-12T14:21:46.475Z,71.30
2018-07-12T14:24:51.422Z,71.70
2018-07-12T14:27:55.863Z,71.60
2018-07-12T14:31:01.073Z,71.00
2018-07-12T14:34:05.760Z,70.70
2018-07-12T14:37:10.315Z,71.20
2018-07-12T14:40:15.097Z,70.00
2018-07-12T14:43:19.505Z,69.50
2018-07-12T14:46:24.325Z,68.40
2018-07-12T14:49:28.763Z,68.40
2018-07-12T14:52:33.538Z,67.90
2018-07-12T14:55:38.106Z,67.50
2018-07-12T14:58:42.711Z,66.40
2018-07-12T15:01:47.313Z,65.60
2018-07-12T15:04:52.140Z,66.00
2018-07-12T15:07:56.689Z,65.20
2018-07-12T15:11:01.364Z,66.10
2018-07-12T15:14:05.705Z,65.30
2018-07-12T15:17:10.098Z,65.00
2018-07-12T15:20:14.533Z,63.90
2018-07-12T15:26:24.785Z,62.90
2018-07-12T15:29:29.474Z,60.80
2018-07-12T15:32:33.960Z,60.70
2018-07-12T15:35:38.711Z,60.30
2018-07-12T15:38:43.248Z,60.30
2018-07-12T15:41:48.601Z,59.50
2018-07-12T15:44:52.997Z,59.90
2018-07-12T15:47:57.547Z,58.50
2018-07-12T15:51:01.965Z,58.30
2018-07-12T15:54:06.436Z,58.50
2018-07-12T15:57:11.193Z,58.90
2018-07-12T16:00:15.773Z,58.20
2018-07-12T16:03:20.201Z,58.10
2018-07-12T16:06:24.649Z,58.70
2018-07-12T16:09:29.168Z,57.30
2018-07-12T16:12:33.813Z,57.30
2018-07-12T16:15:38.320Z,58.00
2018-07-12T16:18:42.831Z,58.80
2018-07-12T16:21:47.320Z,58.60
2018-07-12T16:24:51.748Z,58.50
2018-07-12T16:27:56.234Z,59.80
2018-07-12T16:31:00.581Z,61.10
2018-07-12T16:34:05.009Z,60.70
2018-07-12T16:37:09.896Z,61.50
2018-07-12T16:40:14.216Z,62.40
2018-07-12T16:43:18.714Z,59.70
2018-07-12T16:46:23.116Z,58.30
2018-07-12T16:49:27.483Z,59.60
2018-07-12T16:52:32.335Z,58.00
2018-07-12T16:55:36.689Z,58.30
2018-07-12T16:58:41.161Z,59.50
2018-07-12T17:01:45.650Z,60.90
2018-07-12T17:04:50.038Z,63.20
2018-07-12T17:07:54.694Z,65.80
2018-07-12T17:10:59.292Z,66.50
2018-07-12T17:14:03.737Z,66.10
2018-07-12T17:17:08.138Z,67.10
2018-07-12T17:20:12.562Z,68.40
2018-07-12T17:23:17.012Z,68.90
2018-07-12T17:26:21.577Z,69.70
2018-07-12T17:29:26.093Z,71.30
2018-07-12T17:32:30.770Z,73.20
2018-07-12T17:35:35.325Z,75.20
2018-07-12T17:38:39.849Z,78.10
2018-07-12T17:41:44.494Z,79.30
2018-07-12T17:44:48.972Z,79.70
2018-07-12T17:47:53.491Z,80.60
2018-07-12T17:50:58.043Z,81.60
2018-07-12T17:54:02.541Z,82.10
2018-07-12T17:57:07.646Z,83.30
2018-07-12T18:00:12.624Z,84.60
2018-07-12T18:03:19.225Z,86.70
2018-07-12T18:06:24.169Z,86.10
2018-07-12T18:09:28.858Z,86.50
2018-07-12T18:12:33.455Z,86.80
2018-07-12T18:15:39.117Z,87.40
2018-07-12T18:18:44.620Z,87.50
2018-07-12T18:21:49.211Z,88.20
2018-07-12T18:24:54.722Z,88.90
2018-07-12T18:27:59.437Z,89.30
2018-07-12T18:31:03.865Z,90.10
2018-07-12T18:34:08.318Z,90.60
2018-07-12T18:37:12.925Z,90.90
2018-07-12T18:40:17.395Z,91.30
2018-07-12T18:43:21.721Z,91.40
2018-07-12T18:46:26.341Z,91.60
2018-07-12T18:49:31.065Z,91.70
2018-07-12T18:52:35.769Z,92.00
2018-07-12T18:55:40.831Z,92.10
2018-07-12T18:58:45.273Z,92.70
2018-07-12T19:01:49.788Z,93.30
2018-07-12T19:04:54.207Z,93.70
2018-07-12T19:07:58.656Z,93.90
2018-07-12T19:11:03.076Z,94.10
2018-07-12T19:14:07.445Z,94.30
2018-07-12T19:17:12.034Z,94.70
2018-07-12T19:20:16.408Z,95.30
2018-07-12T19:23:20.841Z,95.80
2018-07-12T19:26:25.302Z,96.40
2018-07-12T19:29:29.764Z,96.80
2018-07-12T19:32:34.215Z,97.30
2018-07-12T19:35:38.722Z,98.00
2018-07-12T19:38:43.163Z,98.20
2018-07-12T19:41:47.589Z,98.40
2018-07-12T19:44:51.975Z,98.40
2018-07-12T19:47:56.476Z,98.30
2018-07-12T19:51:01.269Z,98.70
2018-07-12T19:54:05.999Z,99.10
2018-07-12T19:57:10.501Z,99.40
2018-07-12T20:00:15.089Z,99.70
2018-07-12T20:03:19.959Z,99.90
2018-07-12T20:06:24.551Z,99.90
2018-07-12T20:09:29.072Z,99.90
2018-07-12T20:12:33.452Z,99.90
2018-07-12T20:15:38.347Z,99.90
2018-07-12T20:18:42.766Z,99.90
2018-07-12T20:21:47.269Z,99.90
2018-07-12T20:24:51.789Z,99.90
2018-07-12T20:27:56.257Z,99.90
2018-07-12T20:31:00.760Z,99.90
2018-07-12T20:34:05.177Z,99.90
2018-07-12T20:37:09.816Z,99.90
2018-07-12T20:40:14.225Z,99.90
2018-07-12T20:43:20.681Z,99.90
2018-07-12T20:46:25.282Z,99.90
2018-07-12T20:49:29.754Z,99.90
2018-07-12T20:52:34.429Z,99.90
2018-07-12T20:55:41.949Z,99.90
2018-07-12T20:58:46.402Z,99.90
2018-07-12T21:01:50.799Z,99.90
2018-07-12T21:04:55.304Z,99.90
2018-07-12T21:07:59.868Z,99.90
2018-07-12T21:11:04.458Z,99.90
2018-07-12T21:14:09.056Z,99.90
2018-07-12T21:17:13.642Z,99.90
2018-07-12T21:20:18.424Z,99.90
2018-07-12T21:23:23.690Z,99.90
2018-07-12T21:26:28.041Z,99.90
2018-07-12T21:29:32.445Z,99.90
2018-07-12T21:32:37.404Z,99.90
2018-07-12T21:35:41.977Z,99.90
2018-07-12T21:38:46.870Z,99.90
2018-07-12T21:41:51.525Z,99.90
2018-07-12T21:44:56.066Z,99.90
2018-07-12T21:48:00.618Z,99.90
2018-07-12T21:51:05.774Z,99.90
2018-07-12T21:54:10.463Z,99.90
2018-07-12T21:57:15.070Z,99.90
2018-07-12T22:00:19.962Z,99.90
2018-07-12T22:03:24.638Z,99.90
2018-07-12T22:06:59.249Z,99.90
2018-07-12T22:10:04.855Z,99.90
2018-07-12T22:13:10.345Z,99.90
2018-07-12T22:16:14.841Z,99.90
2018-07-12T22:19:19.324Z,99.90
2018-07-12T22:22:23.727Z,99.90
2018-07-12T22:25:28.469Z,99.90
2018-07-12T22:28:32.967Z,99.90
2018-07-12T22:34:41.590Z,99.90
2018-07-12T22:37:46.101Z,99.90
2018-07-12T22:40:50.517Z,99.90
2018-07-12T22:43:54.914Z,99.90
2018-07-12T22:46:59.328Z,99.90
2018-07-12T22:50:03.828Z,99.90
2018-07-12T22:53:08.196Z,99.90
2018-07-12T22:56:12.674Z,99.90
2018-07-12T23:02:21.200Z,99.90
2018-07-12T23:05:25.546Z,99.90
2018-07-12T23:08:29.875Z,99.90
2018-07-12T23:11:34.288Z,99.90
2018-07-12T23:14:38.643Z,99.90
2018-07-12T23:17:43.240Z,99.90
2018-07-12T23:20:47.705Z,99.90
2018-07-12T23:23:52.041Z,99.90
2018-07-12T23:26:56.559Z,99.90
2018-07-12T23:30:00.898Z,99.90
2018-07-12T23:33:05.307Z,99.90
2018-07-12T23:36:10.221Z,99.90
2018-07-12T23:39:15.413Z,99.90
2018-07-12T23:42:20.194Z,99.90
2018-07-12T23:45:25.437Z,99.90
2018-07-12T23:48:30.286Z,99.90
2018-07-12T23:51:35.876Z,99.90
2018-07-12T23:54:40.551Z,99.90
2018-07-12T23:57:45.286Z,99.90
